sensor_id;sensor_type;location;lat;lon;timestamp;P1;durP1;ratioP1;P2;durP2;ratioP2
16073;SDS011;8141;52.664;5.074;2023-05-29T00:00:06;5.50;;;1.33;;
16073;SDS011;8141;52.664;5.074;2023-05-29T00:02:35;4.50;;;1.67;;
16073;SDS011;8141;52.664;5.074;2023-05-29T00:05:01;4.47;;;1.63;;
16073;SDS011;8141;52.664;5.074;2023-05-29T00:07:30;5.57;;;1.50;;
16073;SDS011;8141;52.664;5.074;2023-05-29T00:09:57;4.83;;;1.50;;
16073;SDS011;8141;52.664;5.074;2023-05-29T00:12:23;4.33;;;1.50;;
16073;SDS011;8141;52.664;5.074;2023-05-29T00:14:50;7.53;;;1.43;;
16073;SDS011;8141;52.664;5.074;2023-05-29T00:17:16;3.37;;;1.23;;
16073;SDS011;8141;52.664;5.074;2023-05-29T00:19:42;5.47;;;1.50;;
16073;SDS011;8141;52.664;5.074;2023-05-29T00:22:08;5.67;;;1.50;;
16073;SDS011;8141;52.664;5.074;2023-05-29T00:24:35;6.87;;;1.77;;
16073;SDS011;8141;52.664;5.074;2023-05-29T00:27:00;5.47;;;1.27;;
16073;SDS011;8141;52.664;5.074;2023-05-29T00:29:26;4.00;;;1.67;;
16073;SDS011;8141;52.664;5.074;2023-05-29T00:31:52;4.60;;;1.77;;
16073;SDS011;8141;52.664;5.074;2023-05-29T00:34:19;3.90;;;1.23;;
16073;SDS011;8141;52.664;5.074;2023-05-29T00:36:45;5.53;;;1.80;;
16073;SDS011;8141;52.664;5.074;2023-05-29T00:39:11;4.43;;;1.40;;
16073;SDS011;8141;52.664;5.074;2023-05-29T00:41:37;4.77;;;1.60;;
16073;SDS011;8141;52.664;5.074;2023-05-29T00:44:03;4.07;;;1.63;;
16073;SDS011;8141;52.664;5.074;2023-05-29T00:46:29;3.80;;;1.67;;
16073;SDS011;8141;52.664;5.074;2023-05-29T00:48:57;4.97;;;1.60;;
16073;SDS011;8141;52.664;5.074;2023-05-29T00:51:24;3.43;;;1.30;;
16073;SDS011;8141;52.664;5.074;2023-05-29T00:53:51;5.00;;;1.33;;
16073;SDS011;8141;52.664;5.074;2023-05-29T00:56:18;6.40;;;1.60;;
16073;SDS011;8141;52.664;5.074;2023-05-29T00:58:46;6.47;;;1.50;;
16073;SDS011;8141;52.664;5.074;2023-05-29T01:01:16;4.63;;;1.13;;
16073;SDS011;8141;52.664;5.074;2023-05-29T01:03:46;6.50;;;1.43;;
16073;SDS011;8141;52.664;5.074;2023-05-29T01:06:13;3.70;;;1.40;;
16073;SDS011;8141;52.664;5.074;2023-05-29T01:08:39;9.57;;;2.63;;
16073;SDS011;8141;52.664;5.074;2023-05-29T01:11:12;7.03;;;1.57;;
16073;SDS011;8141;52.664;5.074;2023-05-29T01:14:11;3.67;;;1.50;;
16073;SDS011;8141;52.664;5.074;2023-05-29T01:16:59;10.60;;;1.97;;
16073;SDS011;8141;52.664;5.074;2023-05-29T01:22:12;3.13;;;1.03;;
16073;SDS011;8141;52.664;5.074;2023-05-29T01:25:04;6.60;;;1.37;;
16073;SDS011;8141;52.664;5.074;2023-05-29T01:27:42;6.57;;;1.50;;
16073;SDS011;8141;52.664;5.074;2023-05-29T01:30:12;2.37;;;1.30;;
16073;SDS011;8141;52.664;5.074;2023-05-29T01:32:39;4.53;;;1.50;;
16073;SDS011;8141;52.664;5.074;2023-05-29T01:35:07;5.00;;;1.50;;
16073;SDS011;8141;52.664;5.074;2023-05-29T01:37:34;4.40;;;1.60;;
16073;SDS011;8141;52.664;5.074;2023-05-29T01:39:59;3.90;;;1.23;;
16073;SDS011;8141;52.664;5.074;2023-05-29T01:42:26;6.07;;;1.27;;
16073;SDS011;8141;52.664;5.074;2023-05-29T01:44:54;4.53;;;1.40;;
16073;SDS011;8141;52.664;5.074;2023-05-29T01:47:21;3.20;;;1.37;;
16073;SDS011;8141;52.664;5.074;2023-05-29T01:49:48;3.10;;;1.13;;
16073;SDS011;8141;52.664;5.074;2023-05-29T01:52:16;2.03;;;1.10;;
16073;SDS011;8141;52.664;5.074;2023-05-29T01:54:42;3.27;;;1.20;;
16073;SDS011;8141;52.664;5.074;2023-05-29T01:57:09;3.53;;;1.30;;
16073;SDS011;8141;52.664;5.074;2023-05-29T01:59:37;4.47;;;1.50;;
16073;SDS011;8141;52.664;5.074;2023-05-29T02:02:06;3.27;;;1.13;;
16073;SDS011;8141;52.664;5.074;2023-05-29T02:04:33;4.73;;;1.20;;
16073;SDS011;8141;52.664;5.074;2023-05-29T02:06:59;6.40;;;1.13;;
16073;SDS011;8141;52.664;5.074;2023-05-29T02:09:25;3.97;;;1.20;;
16073;SDS011;8141;52.664;5.074;2023-05-29T02:11:50;3.10;;;1.20;;
16073;SDS011;8141;52.664;5.074;2023-05-29T02:14:17;4.50;;;1.67;;
16073;SDS011;8141;52.664;5.074;2023-05-29T02:16:43;7.77;;;1.40;;
16073;SDS011;8141;52.664;5.074;2023-05-29T02:19:09;3.87;;;1.43;;
16073;SDS011;8141;52.664;5.074;2023-05-29T02:21:38;3.67;;;1.10;;
16073;SDS011;8141;52.664;5.074;2023-05-29T02:24:07;6.10;;;1.60;;
16073;SDS011;8141;52.664;5.074;2023-05-29T02:26:33;4.43;;;1.43;;
16073;SDS011;8141;52.664;5.074;2023-05-29T02:29:01;3.13;;;1.30;;
16073;SDS011;8141;52.664;5.074;2023-05-29T02:31:27;5.57;;;1.60;;
16073;SDS011;8141;52.664;5.074;2023-05-29T02:33:53;4.40;;;1.20;;
16073;SDS011;8141;52.664;5.074;2023-05-29T02:36:19;6.00;;;1.43;;
16073;SDS011;8141;52.664;5.074;2023-05-29T02:38:45;6.57;;;1.57;;
16073;SDS011;8141;52.664;5.074;2023-05-29T02:41:11;4.97;;;1.50;;
16073;SDS011;8141;52.664;5.074;2023-05-29T02:43:36;2.90;;;1.00;;
16073;SDS011;8141;52.664;5.074;2023-05-29T02:46:02;3.97;;;1.33;;
16073;SDS011;8141;52.664;5.074;2023-05-29T02:48:28;3.23;;;1.30;;
16073;SDS011;8141;52.664;5.074;2023-05-29T02:50:54;5.43;;;1.10;;
16073;SDS011;8141;52.664;5.074;2023-05-29T02:53:20;5.93;;;2.00;;
16073;SDS011;8141;52.664;5.074;2023-05-29T02:55:45;4.63;;;0.83;;
16073;SDS011;8141;52.664;5.074;2023-05-29T02:58:12;5.57;;;1.10;;
16073;SDS011;8141;52.664;5.074;2023-05-29T03:00:37;2.67;;;1.20;;
16073;SDS011;8141;52.664;5.074;2023-05-29T03:03:03;2.93;;;1.03;;
16073;SDS011;8141;52.664;5.074;2023-05-29T03:05:29;6.47;;;1.27;;
16073;SDS011;8141;52.664;5.074;2023-05-29T03:07:55;3.17;;;1.40;;
16073;SDS011;8141;52.664;5.074;2023-05-29T03:10:21;4.93;;;1.20;;
16073;SDS011;8141;52.664;5.074;2023-05-29T03:12:47;3.17;;;1.10;;
16073;SDS011;8141;52.664;5.074;2023-05-29T03:15:12;3.23;;;1.27;;
16073;SDS011;8141;52.664;5.074;2023-05-29T03:17:39;3.73;;;1.10;;
16073;SDS011;8141;52.664;5.074;2023-05-29T03:20:05;2.90;;;1.10;;
16073;SDS011;8141;52.664;5.074;2023-05-29T03:22:32;4.50;;;1.33;;
16073;SDS011;8141;52.664;5.074;2023-05-29T03:25:01;4.07;;;1.07;;
16073;SDS011;8141;52.664;5.074;2023-05-29T03:27:27;2.43;;;1.13;;
16073;SDS011;8141;52.664;5.074;2023-05-29T03:29:54;1.97;;;0.97;;
16073;SDS011;8141;52.664;5.074;2023-05-29T03:32:20;4.13;;;1.27;;
16073;SDS011;8141;52.664;5.074;2023-05-29T03:34:46;3.70;;;1.50;;
16073;SDS011;8141;52.664;5.074;2023-05-29T03:37:12;3.47;;;1.10;;
16073;SDS011;8141;52.664;5.074;2023-05-29T03:39:38;5.80;;;1.30;;
16073;SDS011;8141;52.664;5.074;2023-05-29T03:42:04;5.03;;;1.33;;
16073;SDS011;8141;52.664;5.074;2023-05-29T03:44:30;2.40;;;0.93;;
16073;SDS011;8141;52.664;5.074;2023-05-29T03:46:56;3.27;;;1.17;;
16073;SDS011;8141;52.664;5.074;2023-05-29T03:49:22;3.47;;;1.30;;
16073;SDS011;8141;52.664;5.074;2023-05-29T03:51:48;3.90;;;1.40;;
16073;SDS011;8141;52.664;5.074;2023-05-29T03:54:15;3.50;;;1.13;;
16073;SDS011;8141;52.664;5.074;2023-05-29T03:56:41;3.47;;;1.03;;
16073;SDS011;8141;52.664;5.074;2023-05-29T03:59:06;3.07;;;1.07;;
16073;SDS011;8141;52.664;5.074;2023-05-29T04:01:32;2.90;;;1.30;;
16073;SDS011;8141;52.664;5.074;2023-05-29T04:03:58;3.20;;;1.53;;
16073;SDS011;8141;52.664;5.074;2023-05-29T04:06:24;2.37;;;0.90;;
16073;SDS011;8141;52.664;5.074;2023-05-29T04:08:50;5.13;;;1.50;;
16073;SDS011;8141;52.664;5.074;2023-05-29T04:11:16;3.53;;;0.93;;
16073;SDS011;8141;52.664;5.074;2023-05-29T04:13:42;3.67;;;1.27;;
16073;SDS011;8141;52.664;5.074;2023-05-29T04:16:08;3.20;;;1.03;;
16073;SDS011;8141;52.664;5.074;2023-05-29T04:18:34;3.87;;;1.10;;
16073;SDS011;8141;52.664;5.074;2023-05-29T04:20:59;3.93;;;1.30;;
16073;SDS011;8141;52.664;5.074;2023-05-29T04:23:25;3.23;;;1.30;;
16073;SDS011;8141;52.664;5.074;2023-05-29T04:25:51;3.00;;;0.80;;
16073;SDS011;8141;52.664;5.074;2023-05-29T04:28:17;2.93;;;1.13;;
16073;SDS011;8141;52.664;5.074;2023-05-29T04:30:46;4.83;;;1.20;;
16073;SDS011;8141;52.664;5.074;2023-05-29T04:33:12;4.07;;;1.43;;
16073;SDS011;8141;52.664;5.074;2023-05-29T04:35:40;5.30;;;1.30;;
16073;SDS011;8141;52.664;5.074;2023-05-29T04:38:09;3.67;;;1.10;;
16073;SDS011;8141;52.664;5.074;2023-05-29T04:40:35;4.87;;;0.90;;
16073;SDS011;8141;52.664;5.074;2023-05-29T04:43:05;3.40;;;1.40;;
16073;SDS011;8141;52.664;5.074;2023-05-29T04:45:31;3.33;;;1.10;;
16073;SDS011;8141;52.664;5.074;2023-05-29T04:47:57;1.87;;;1.00;;
16073;SDS011;8141;52.664;5.074;2023-05-29T04:50:22;1.90;;;0.80;;
16073;SDS011;8141;52.664;5.074;2023-05-29T04:52:49;4.97;;;1.17;;
16073;SDS011;8141;52.664;5.074;2023-05-29T04:55:14;2.80;;;0.83;;
16073;SDS011;8141;52.664;5.074;2023-05-29T04:57:41;3.20;;;0.80;;
16073;SDS011;8141;52.664;5.074;2023-05-29T05:00:07;5.97;;;1.00;;
16073;SDS011;8141;52.664;5.074;2023-05-29T05:02:39;2.03;;;0.90;;
16073;SDS011;8141;52.664;5.074;2023-05-29T05:05:07;2.43;;;1.20;;
16073;SDS011;8141;52.664;5.074;2023-05-29T05:07:33;2.10;;;1.03;;
16073;SDS011;8141;52.664;5.074;2023-05-29T05:09:59;2.40;;;1.10;;
16073;SDS011;8141;52.664;5.074;2023-05-29T05:12:26;2.60;;;0.83;;
16073;SDS011;8141;52.664;5.074;2023-05-29T05:14:52;2.83;;;0.93;;
16073;SDS011;8141;52.664;5.074;2023-05-29T05:17:17;3.73;;;1.27;;
16073;SDS011;8141;52.664;5.074;2023-05-29T05:19:43;4.50;;;1.10;;
16073;SDS011;8141;52.664;5.074;2023-05-29T05:22:09;4.53;;;1.30;;
16073;SDS011;8141;52.664;5.074;2023-05-29T05:24:35;5.57;;;1.10;;
16073;SDS011;8141;52.664;5.074;2023-05-29T05:27:00;2.73;;;0.90;;
16073;SDS011;8141;52.664;5.074;2023-05-29T05:29:26;3.93;;;1.30;;
16073;SDS011;8141;52.664;5.074;2023-05-29T05:31:52;3.23;;;1.03;;
16073;SDS011;8141;52.664;5.074;2023-05-29T05:34:18;4.93;;;1.20;;
16073;SDS011;8141;52.664;5.074;2023-05-29T05:36:43;4.27;;;0.80;;
16073;SDS011;8141;52.664;5.074;2023-05-29T05:39:09;3.97;;;1.10;;
16073;SDS011;8141;52.664;5.074;2023-05-29T05:41:35;3.37;;;0.60;;
16073;SDS011;8141;52.664;5.074;2023-05-29T05:44:01;4.93;;;0.90;;
16073;SDS011;8141;52.664;5.074;2023-05-29T05:46:26;2.17;;;0.70;;
16073;SDS011;8141;52.664;5.074;2023-05-29T05:48:53;3.57;;;1.07;;
16073;SDS011;8141;52.664;5.074;2023-05-29T05:51:22;4.97;;;1.33;;
16073;SDS011;8141;52.664;5.074;2023-05-29T05:53:48;2.17;;;0.90;;
16073;SDS011;8141;52.664;5.074;2023-05-29T05:56:14;3.13;;;1.10;;
16073;SDS011;8141;52.664;5.074;2023-05-29T05:58:40;2.10;;;0.80;;
16073;SDS011;8141;52.664;5.074;2023-05-29T06:01:07;4.73;;;1.20;;
16073;SDS011;8141;52.664;5.074;2023-05-29T06:03:33;2.37;;;0.90;;
16073;SDS011;8141;52.664;5.074;2023-05-29T06:05:59;2.93;;;1.20;;
16073;SDS011;8141;52.664;5.074;2023-05-29T06:08:26;3.87;;;0.90;;
16073;SDS011;8141;52.664;5.074;2023-05-29T06:10:51;2.23;;;1.00;;
16073;SDS011;8141;52.664;5.074;2023-05-29T06:13:17;4.10;;;1.17;;
16073;SDS011;8141;52.664;5.074;2023-05-29T06:15:43;3.10;;;1.07;;
16073;SDS011;8141;52.664;5.074;2023-05-29T06:18:09;2.37;;;1.10;;
16073;SDS011;8141;52.664;5.074;2023-05-29T06:20:34;2.87;;;0.77;;
16073;SDS011;8141;52.664;5.074;2023-05-29T06:23:01;4.30;;;1.07;;
16073;SDS011;8141;52.664;5.074;2023-05-29T06:25:27;2.67;;;0.93;;
16073;SDS011;8141;52.664;5.074;2023-05-29T06:27:58;3.10;;;0.70;;
16073;SDS011;8141;52.664;5.074;2023-05-29T06:30:25;2.80;;;1.27;;
16073;SDS011;8141;52.664;5.074;2023-05-29T06:32:51;6.83;;;1.57;;
16073;SDS011;8141;52.664;5.074;2023-05-29T06:35:17;4.10;;;1.10;;
16073;SDS011;8141;52.664;5.074;2023-05-29T06:37:45;5.43;;;1.77;;
16073;SDS011;8141;52.664;5.074;2023-05-29T06:40:11;4.27;;;0.90;;
16073;SDS011;8141;52.664;5.074;2023-05-29T06:42:38;2.67;;;0.73;;
16073;SDS011;8141;52.664;5.074;2023-05-29T06:45:03;2.73;;;1.07;;
16073;SDS011;8141;52.664;5.074;2023-05-29T06:47:30;4.13;;;1.00;;
16073;SDS011;8141;52.664;5.074;2023-05-29T06:49:56;5.83;;;1.23;;
16073;SDS011;8141;52.664;5.074;2023-05-29T06:52:22;4.73;;;1.37;;
16073;SDS011;8141;52.664;5.074;2023-05-29T06:54:48;3.87;;;1.10;;
16073;SDS011;8141;52.664;5.074;2023-05-29T06:57:13;4.90;;;1.27;;
16073;SDS011;8141;52.664;5.074;2023-05-29T06:59:39;6.10;;;1.30;;
16073;SDS011;8141;52.664;5.074;2023-05-29T07:02:05;11.10;;;1.80;;
16073;SDS011;8141;52.664;5.074;2023-05-29T07:04:31;8.77;;;2.10;;
16073;SDS011;8141;52.664;5.074;2023-05-29T07:06:57;9.20;;;2.53;;
16073;SDS011;8141;52.664;5.074;2023-05-29T07:09:23;10.70;;;2.07;;
16073;SDS011;8141;52.664;5.074;2023-05-29T07:11:50;9.67;;;2.30;;
16073;SDS011;8141;52.664;5.074;2023-05-29T07:14:16;9.40;;;2.30;;
16073;SDS011;8141;52.664;5.074;2023-05-29T07:16:41;7.70;;;2.43;;
16073;SDS011;8141;52.664;5.074;2023-05-29T07:19:07;6.27;;;2.10;;
16073;SDS011;8141;52.664;5.074;2023-05-29T07:21:33;7.27;;;1.97;;
16073;SDS011;8141;52.664;5.074;2023-05-29T07:23:59;11.60;;;2.70;;
16073;SDS011;8141;52.664;5.074;2023-05-29T07:26:25;12.40;;;2.60;;
16073;SDS011;8141;52.664;5.074;2023-05-29T07:28:50;9.03;;;2.83;;
16073;SDS011;8141;52.664;5.074;2023-05-29T07:31:17;11.33;;;3.00;;
16073;SDS011;8141;52.664;5.074;2023-05-29T07:33:42;7.20;;;2.10;;
16073;SDS011;8141;52.664;5.074;2023-05-29T07:36:09;9.43;;;2.70;;
16073;SDS011;8141;52.664;5.074;2023-05-29T07:38:35;7.67;;;2.37;;
16073;SDS011;8141;52.664;5.074;2023-05-29T07:41:01;10.27;;;2.60;;
16073;SDS011;8141;52.664;5.074;2023-05-29T07:43:27;10.77;;;2.57;;
16073;SDS011;8141;52.664;5.074;2023-05-29T07:45:53;10.17;;;2.63;;
16073;SDS011;8141;52.664;5.074;2023-05-29T07:48:18;10.57;;;2.33;;
16073;SDS011;8141;52.664;5.074;2023-05-29T07:50:44;9.67;;;2.00;;
16073;SDS011;8141;52.664;5.074;2023-05-29T07:53:10;9.60;;;2.50;;
16073;SDS011;8141;52.664;5.074;2023-05-29T07:55:36;7.67;;;2.33;;
16073;SDS011;8141;52.664;5.074;2023-05-29T07:58:02;12.73;;;3.40;;
16073;SDS011;8141;52.664;5.074;2023-05-29T08:00:28;9.50;;;2.33;;
16073;SDS011;8141;52.664;5.074;2023-05-29T08:02:53;10.67;;;2.27;;
16073;SDS011;8141;52.664;5.074;2023-05-29T08:05:20;7.87;;;1.93;;
16073;SDS011;8141;52.664;5.074;2023-05-29T08:07:45;8.93;;;2.87;;
16073;SDS011;8141;52.664;5.074;2023-05-29T08:10:13;10.07;;;2.47;;
16073;SDS011;8141;52.664;5.074;2023-05-29T08:12:39;9.53;;;2.70;;
16073;SDS011;8141;52.664;5.074;2023-05-29T08:15:05;12.63;;;2.50;;
16073;SDS011;8141;52.664;5.074;2023-05-29T08:17:31;11.63;;;2.30;;
16073;SDS011;8141;52.664;5.074;2023-05-29T08:19:56;9.93;;;2.40;;
16073;SDS011;8141;52.664;5.074;2023-05-29T08:22:27;13.03;;;2.80;;
16073;SDS011;8141;52.664;5.074;2023-05-29T08:24:58;11.77;;;2.70;;
16073;SDS011;8141;52.664;5.074;2023-05-29T08:27:24;9.70;;;3.20;;
16073;SDS011;8141;52.664;5.074;2023-05-29T08:29:50;9.00;;;2.60;;
16073;SDS011;8141;52.664;5.074;2023-05-29T08:32:16;16.97;;;3.60;;
16073;SDS011;8141;52.664;5.074;2023-05-29T08:34:41;9.57;;;2.57;;
16073;SDS011;8141;52.664;5.074;2023-05-29T08:37:09;11.53;;;3.10;;
16073;SDS011;8141;52.664;5.074;2023-05-29T08:39:35;8.50;;;2.73;;
16073;SDS011;8141;52.664;5.074;2023-05-29T08:42:03;7.93;;;2.43;;
16073;SDS011;8141;52.664;5.074;2023-05-29T08:44:33;14.50;;;3.23;;
16073;SDS011;8141;52.664;5.074;2023-05-29T08:47:01;13.97;;;2.80;;
16073;SDS011;8141;52.664;5.074;2023-05-29T08:49:37;14.00;;;3.37;;
16073;SDS011;8141;52.664;5.074;2023-05-29T08:54:43;11.30;;;3.53;;
16073;SDS011;8141;52.664;5.074;2023-05-29T08:57:09;14.53;;;3.80;;
16073;SDS011;8141;52.664;5.074;2023-05-29T08:59:36;8.67;;;3.10;;
16073;SDS011;8141;52.664;5.074;2023-05-29T09:02:05;12.30;;;3.47;;
16073;SDS011;8141;52.664;5.074;2023-05-29T09:04:31;9.33;;;3.03;;
16073;SDS011;8141;52.664;5.074;2023-05-29T09:06:57;15.33;;;3.37;;
16073;SDS011;8141;52.664;5.074;2023-05-29T09:09:25;13.47;;;3.07;;
16073;SDS011;8141;52.664;5.074;2023-05-29T09:11:54;13.93;;;3.63;;
16073;SDS011;8141;52.664;5.074;2023-05-29T09:14:54;12.77;;;3.20;;
16073;SDS011;8141;52.664;5.074;2023-05-29T09:17:13;16.20;;;3.77;;
16073;SDS011;8141;52.664;5.074;2023-05-29T09:19:40;9.13;;;3.10;;
16073;SDS011;8141;52.664;5.074;2023-05-29T09:22:08;15.63;;;3.83;;
16073;SDS011;8141;52.664;5.074;2023-05-29T09:24:39;20.23;;;4.87;;
16073;SDS011;8141;52.664;5.074;2023-05-29T09:27:06;19.03;;;4.10;;
16073;SDS011;8141;52.664;5.074;2023-05-29T09:29:37;20.40;;;4.33;;
16073;SDS011;8141;52.664;5.074;2023-05-29T09:32:08;20.63;;;4.90;;
16073;SDS011;8141;52.664;5.074;2023-05-29T09:34:39;19.77;;;4.50;;
16073;SDS011;8141;52.664;5.074;2023-05-29T09:37:07;13.13;;;4.40;;
16073;SDS011;8141;52.664;5.074;2023-05-29T09:39:55;15.53;;;4.60;;
16073;SDS011;8141;52.664;5.074;2023-05-29T09:42:20;14.05;;;3.95;;
16073;SDS011;8141;52.664;5.074;2023-05-29T09:44:49;17.47;;;4.73;;
16073;SDS011;8141;52.664;5.074;2023-05-29T09:47:17;18.50;;;4.23;;
16073;SDS011;8141;52.664;5.074;2023-05-29T09:49:44;12.00;;;4.53;;
16073;SDS011;8141;52.664;5.074;2023-05-29T09:52:11;17.30;;;4.50;;
16073;SDS011;8141;52.664;5.074;2023-05-29T09:54:39;13.13;;;4.07;;
16073;SDS011;8141;52.664;5.074;2023-05-29T09:57:10;13.97;;;3.87;;
16073;SDS011;8141;52.664;5.074;2023-05-29T09:59:41;13.83;;;3.70;;
16073;SDS011;8141;52.664;5.074;2023-05-29T10:02:13;15.40;;;3.70;;
16073;SDS011;8141;52.664;5.074;2023-05-29T10:04:40;16.43;;;3.63;;
16073;SDS011;8141;52.664;5.074;2023-05-29T10:07:10;13.20;;;3.40;;
16073;SDS011;8141;52.664;5.074;2023-05-29T10:09:50;13.63;;;4.13;;
16073;SDS011;8141;52.664;5.074;2023-05-29T10:12:23;13.80;;;3.90;;
16073;SDS011;8141;52.664;5.074;2023-05-29T10:14:51;13.10;;;3.17;;
16073;SDS011;8141;52.664;5.074;2023-05-29T10:17:23;14.03;;;3.93;;
16073;SDS011;8141;52.664;5.074;2023-05-29T10:19:53;16.07;;;4.27;;
16073;SDS011;8141;52.664;5.074;2023-05-29T10:22:23;16.87;;;4.13;;
16073;SDS011;8141;52.664;5.074;2023-05-29T10:24:51;11.50;;;3.13;;
16073;SDS011;8141;52.664;5.074;2023-05-29T10:27:18;12.17;;;3.53;;
16073;SDS011;8141;52.664;5.074;2023-05-29T10:30:02;14.23;;;3.60;;
16073;SDS011;8141;52.664;5.074;2023-05-29T10:32:38;17.03;;;4.07;;
16073;SDS011;8141;52.664;5.074;2023-05-29T10:35:53;16.43;;;4.43;;
16073;SDS011;8141;52.664;5.074;2023-05-29T10:38:36;12.27;;;3.50;;
16073;SDS011;8141;52.664;5.074;2023-05-29T10:43:56;10.47;;;3.73;;
16073;SDS011;8141;52.664;5.074;2023-05-29T10:49:15;13.47;;;3.87;;
16073;SDS011;8141;52.664;5.074;2023-05-29T10:51:45;12.50;;;3.80;;
16073;SDS011;8141;52.664;5.074;2023-05-29T10:54:13;14.77;;;4.30;;
16073;SDS011;8141;52.664;5.074;2023-05-29T10:56:41;15.40;;;4.13;;
16073;SDS011;8141;52.664;5.074;2023-05-29T10:59:17;13.25;;;3.50;;
16073;SDS011;8141;52.664;5.074;2023-05-29T11:01:43;14.97;;;4.10;;
16073;SDS011;8141;52.664;5.074;2023-05-29T11:06:47;15.37;;;3.47;;
16073;SDS011;8141;52.664;5.074;2023-05-29T11:09:26;18.27;;;4.43;;
16073;SDS011;8141;52.664;5.074;2023-05-29T11:14:47;14.53;;;3.40;;
16073;SDS011;8141;52.664;5.074;2023-05-29T11:17:31;17.77;;;3.50;;
16073;SDS011;8141;52.664;5.074;2023-05-29T11:20:02;12.60;;;3.53;;
16073;SDS011;8141;52.664;5.074;2023-05-29T11:25:25;14.17;;;4.07;;
16073;SDS011;8141;52.664;5.074;2023-05-29T11:27:52;12.87;;;2.97;;
16073;SDS011;8141;52.664;5.074;2023-05-29T11:30:21;13.53;;;3.90;;
16073;SDS011;8141;52.664;5.074;2023-05-29T11:32:47;13.53;;;4.03;;
16073;SDS011;8141;52.664;5.074;2023-05-29T11:35:14;16.63;;;3.77;;
16073;SDS011;8141;52.664;5.074;2023-05-29T11:37:42;16.87;;;3.80;;
16073;SDS011;8141;52.664;5.074;2023-05-29T11:40:11;12.57;;;3.10;;
16073;SDS011;8141;52.664;5.074;2023-05-29T11:42:44;10.97;;;3.57;;
16073;SDS011;8141;52.664;5.074;2023-05-29T11:45:20;14.63;;;4.07;;
16073;SDS011;8141;52.664;5.074;2023-05-29T11:47:53;13.13;;;3.60;;
16073;SDS011;8141;52.664;5.074;2023-05-29T11:50:27;15.47;;;3.50;;
16073;SDS011;8141;52.664;5.074;2023-05-29T11:52:56;13.50;;;3.93;;
16073;SDS011;8141;52.664;5.074;2023-05-29T11:55:23;14.53;;;3.80;;
16073;SDS011;8141;52.664;5.074;2023-05-29T11:57:50;13.47;;;3.80;;
16073;SDS011;8141;52.664;5.074;2023-05-29T12:00:21;10.43;;;3.30;;
16073;SDS011;8141;52.664;5.074;2023-05-29T12:02:47;16.40;;;3.40;;
16073;SDS011;8141;52.664;5.074;2023-05-29T12:05:15;14.80;;;3.40;;
16073;SDS011;8141;52.664;5.074;2023-05-29T12:07:50;16.10;;;3.93;;
16073;SDS011;8141;52.664;5.074;2023-05-29T12:10:18;16.93;;;3.63;;
16073;SDS011;8141;52.664;5.074;2023-05-29T12:12:53;15.33;;;3.73;;
16073;SDS011;8141;52.664;5.074;2023-05-29T12:15:20;9.17;;;2.83;;
16073;SDS011;8141;52.664;5.074;2023-05-29T12:17:47;17.40;;;3.90;;
16073;SDS011;8141;52.664;5.074;2023-05-29T12:20:15;15.47;;;3.37;;
16073;SDS011;8141;52.664;5.074;2023-05-29T12:22:42;14.00;;;4.10;;
16073;SDS011;8141;52.664;5.074;2023-05-29T12:25:14;13.00;;;4.30;;
16073;SDS011;8141;52.664;5.074;2023-05-29T12:27:44;13.87;;;3.43;;
16073;SDS011;8141;52.664;5.074;2023-05-29T12:30:12;15.90;;;4.40;;
16073;SDS011;8141;52.664;5.074;2023-05-29T12:32:48;14.93;;;3.67;;
16073;SDS011;8141;52.664;5.074;2023-05-29T12:37:48;16.47;;;3.97;;
16073;SDS011;8141;52.664;5.074;2023-05-29T12:42:56;13.03;;;3.30;;
16073;SDS011;8141;52.664;5.074;2023-05-29T12:45:24;11.13;;;3.13;;
16073;SDS011;8141;52.664;5.074;2023-05-29T12:47:53;11.30;;;3.40;;
16073;SDS011;8141;52.664;5.074;2023-05-29T12:50:30;10.30;;;3.33;;
16073;SDS011;8141;52.664;5.074;2023-05-29T12:55:29;12.90;;;3.40;;
16073;SDS011;8141;52.664;5.074;2023-05-29T12:58:02;14.10;;;3.10;;
16073;SDS011;8141;52.664;5.074;2023-05-29T13:00:28;15.57;;;3.60;;
16073;SDS011;8141;52.664;5.074;2023-05-29T13:02:55;15.27;;;3.57;;
16073;SDS011;8141;52.664;5.074;2023-05-29T13:05:22;14.83;;;3.37;;
16073;SDS011;8141;52.664;5.074;2023-05-29T13:07:47;11.53;;;3.60;;
16073;SDS011;8141;52.664;5.074;2023-05-29T13:10:17;11.40;;;3.10;;
16073;SDS011;8141;52.664;5.074;2023-05-29T13:12:44;13.63;;;3.30;;
16073;SDS011;8141;52.664;5.074;2023-05-29T13:15:11;15.17;;;3.80;;
16073;SDS011;8141;52.664;5.074;2023-05-29T13:17:38;12.23;;;3.07;;
16073;SDS011;8141;52.664;5.074;2023-05-29T13:22:39;12.30;;;3.67;;
16073;SDS011;8141;52.664;5.074;2023-05-29T13:25:07;9.40;;;3.00;;
16073;SDS011;8141;52.664;5.074;2023-05-29T13:27:38;17.60;;;3.40;;
16073;SDS011;8141;52.664;5.074;2023-05-29T13:30:09;18.13;;;3.60;;
16073;SDS011;8141;52.664;5.074;2023-05-29T13:32:37;10.10;;;2.63;;
16073;SDS011;8141;52.664;5.074;2023-05-29T13:35:03;11.53;;;3.00;;
16073;SDS011;8141;52.664;5.074;2023-05-29T13:37:30;17.67;;;3.57;;
16073;SDS011;8141;52.664;5.074;2023-05-29T13:39:56;8.70;;;3.07;;
16073;SDS011;8141;52.664;5.074;2023-05-29T13:42:22;10.63;;;3.43;;
16073;SDS011;8141;52.664;5.074;2023-05-29T13:44:48;15.33;;;3.70;;
16073;SDS011;8141;52.664;5.074;2023-05-29T13:47:15;12.33;;;3.20;;
16073;SDS011;8141;52.664;5.074;2023-05-29T13:49:41;10.50;;;3.47;;
16073;SDS011;8141;52.664;5.074;2023-05-29T13:52:07;12.93;;;3.40;;
16073;SDS011;8141;52.664;5.074;2023-05-29T13:54:33;11.13;;;2.77;;
16073;SDS011;8141;52.664;5.074;2023-05-29T13:57:02;13.73;;;3.40;;
16073;SDS011;8141;52.664;5.074;2023-05-29T13:59:30;12.70;;;2.90;;
16073;SDS011;8141;52.664;5.074;2023-05-29T14:01:56;9.80;;;2.87;;
16073;SDS011;8141;52.664;5.074;2023-05-29T14:04:22;9.07;;;3.13;;
16073;SDS011;8141;52.664;5.074;2023-05-29T14:06:48;9.67;;;3.57;;
16073;SDS011;8141;52.664;5.074;2023-05-29T14:09:13;13.23;;;4.40;;
16073;SDS011;8141;52.664;5.074;2023-05-29T14:11:39;13.80;;;3.43;;
16073;SDS011;8141;52.664;5.074;2023-05-29T14:14:05;8.30;;;2.70;;
16073;SDS011;8141;52.664;5.074;2023-05-29T14:16:32;10.23;;;2.77;;
16073;SDS011;8141;52.664;5.074;2023-05-29T14:18:59;11.73;;;3.57;;
16073;SDS011;8141;52.664;5.074;2023-05-29T14:21:25;10.70;;;2.80;;
16073;SDS011;8141;52.664;5.074;2023-05-29T14:23:51;11.27;;;3.33;;
16073;SDS011;8141;52.664;5.074;2023-05-29T14:26:17;8.47;;;3.00;;
16073;SDS011;8141;52.664;5.074;2023-05-29T14:28:43;9.47;;;3.30;;
16073;SDS011;8141;52.664;5.074;2023-05-29T14:31:09;8.87;;;3.07;;
16073;SDS011;8141;52.664;5.074;2023-05-29T14:33:35;8.70;;;3.10;;
16073;SDS011;8141;52.664;5.074;2023-05-29T14:36:01;9.97;;;3.43;;
16073;SDS011;8141;52.664;5.074;2023-05-29T14:38:28;12.43;;;4.10;;
16073;SDS011;8141;52.664;5.074;2023-05-29T14:40:54;7.50;;;2.90;;
16073;SDS011;8141;52.664;5.074;2023-05-29T14:43:20;9.17;;;2.83;;
16073;SDS011;8141;52.664;5.074;2023-05-29T14:45:46;12.77;;;4.87;;
16073;SDS011;8141;52.664;5.074;2023-05-29T14:48:12;12.03;;;4.30;;
16073;SDS011;8141;52.664;5.074;2023-05-29T14:50:38;12.23;;;4.67;;
16073;SDS011;8141;52.664;5.074;2023-05-29T14:53:03;10.53;;;3.47;;
16073;SDS011;8141;52.664;5.074;2023-05-29T14:55:29;8.43;;;3.43;;
16073;SDS011;8141;52.664;5.074;2023-05-29T14:58:02;10.73;;;3.33;;
16073;SDS011;8141;52.664;5.074;2023-05-29T15:00:31;10.30;;;3.17;;
16073;SDS011;8141;52.664;5.074;2023-05-29T15:02:57;8.87;;;3.40;;
16073;SDS011;8141;52.664;5.074;2023-05-29T15:05:27;12.77;;;3.87;;
16073;SDS011;8141;52.664;5.074;2023-05-29T15:07:53;10.40;;;3.13;;
16073;SDS011;8141;52.664;5.074;2023-05-29T15:10:21;7.77;;;3.40;;
16073;SDS011;8141;52.664;5.074;2023-05-29T15:12:53;15.60;;;3.70;;
16073;SDS011;8141;52.664;5.074;2023-05-29T15:15:24;10.73;;;2.80;;
16073;SDS011;8141;52.664;5.074;2023-05-29T15:17:53;12.33;;;3.43;;
16073;SDS011;8141;52.664;5.074;2023-05-29T15:20:23;11.00;;;3.23;;
16073;SDS011;8141;52.664;5.074;2023-05-29T15:22:50;10.90;;;2.83;;
16073;SDS011;8141;52.664;5.074;2023-05-29T15:25:17;13.17;;;3.30;;
16073;SDS011;8141;52.664;5.074;2023-05-29T15:27:45;10.03;;;3.13;;